Time;durP1;ratioP1;P1;durP2;ratioP2;P2;SDS_P1;SDS_P2;PMS_P1;PMS_P2;Temp;Humidity;BMP_temperature;BMP_pressure;BME280_temperature;BME280_humidity;BME280_pressure;Samples;Min_cycle;Max_cycle;Signal;HPM_P1;HPM_P2
2020/12/29 00:02:58;;;;;;;20.83;16.70;;;3.60;99.90;;;;;;6300637;28;20481;-65
2020/12/29 00:06:03;;;;;;;23.80;17.40;;;3.60;99.90;;;;;;6300882;28;20477;-64
2020/12/29 00:09:06;;;;;;;19.20;16.17;;;3.40;99.90;;;;;;6300876;28;20473;-64
2020/12/29 00:12:08;;;;;;;19.93;16.13;;;3.40;99.90;;;;;;6300758;28;20481;-64
2020/12/29 00:15:14;;;;;;;18.53;15.50;;;3.20;99.90;;;;;;6300323;28;20492;-65
2020/12/29 00:18:16;;;;;;;28.27;20.63;;;3.20;99.90;;;;;;6300466;28;20457;-62
2020/12/29 00:21:20;;;;;;;28.80;19.40;;;3.20;99.90;;;;;;6299996;28;20947;-64
2020/12/29 00:24:22;;;;;;;23.10;19.33;;;3.20;99.90;;;;;;6300186;28;20513;-64
2020/12/29 00:27:36;;;;;;;24.47;16.93;;;3.10;99.90;;;;;;6300152;28;20473;-63
2020/12/29 00:30:39;;;;;;;26.33;16.93;;;3.00;99.90;;;;;;6300043;28;20464;-64
2020/12/29 00:33:41;;;;;;;22.20;16.10;;;3.00;99.90;;;;;;6300723;28;20469;-62
2020/12/29 00:36:43;;;;;;;19.87;16.00;;;2.90;99.90;;;;;;6300098;28;20461;-65
2020/12/29 00:39:45;;;;;;;21.73;16.60;;;3.00;99.90;;;;;;6299788;28;20469;-61
2020/12/29 00:42:47;;;;;;;21.53;17.30;;;3.00;99.90;;;;;;6299655;28;20469;-63
2020/12/29 00:45:50;;;;;;;20.87;16.10;;;3.00;99.90;;;;;;6295469;28;20548;-64
2020/12/29 00:48:52;;;;;;;19.80;14.83;;;3.10;99.90;;;;;;6299488;28;20824;-63
2020/12/29 00:51:57;;;;;;;23.30;17.70;;;3.20;99.90;;;;;;6300101;28;20497;-64
2020/12/29 00:54:59;;;;;;;21.10;16.17;;;3.20;99.90;;;;;;6299838;28;20469;-64
2020/12/29 00:58:01;;;;;;;19.43;15.40;;;3.00;99.90;;;;;;6299560;28;20965;-66
2020/12/29 01:01:06;;;;;;;19.93;16.30;;;3.10;99.90;;;;;;6299523;28;20965;-67
2020/12/29 01:04:12;;;;;;;21.93;16.00;;;3.10;99.90;;;;;;6299809;28;20554;-63
2020/12/29 01:07:15;;;;;;;22.40;17.07;;;3.10;99.90;;;;;;6299658;28;20495;-64
2020/12/29 01:10:17;;;;;;;29.83;16.13;;;3.10;99.90;;;;;;6299577;28;20473;-62
2020/12/29 01:13:20;;;;;;;45.20;18.00;;;3.10;99.90;;;;;;6299299;28;20503;-65
2020/12/29 01:16:23;;;;;;;24.03;15.53;;;3.10;99.90;;;;;;6299631;28;20462;-62
2020/12/29 01:19:25;;;;;;;22.43;14.63;;;2.90;99.90;;;;;;6299327;28;21075;-62
2020/12/29 01:22:28;;;;;;;21.17;14.10;;;2.90;99.90;;;;;;6299657;28;20618;-62
2020/12/29 01:25:30;;;;;;;37.77;16.00;;;2.90;99.90;;;;;;6299306;28;20809;-62
2020/12/29 01:28:32;;;;;;;20.37;15.03;;;2.90;99.90;;;;;;6299552;28;20465;-66
2020/12/29 01:31:35;;;;;;;26.47;15.60;;;3.00;99.90;;;;;;6298906;28;20496;-63
2020/12/29 01:34:37;;;;;;;17.63;14.63;;;2.90;99.90;;;;;;6299552;28;20473;-64
2020/12/29 01:37:42;;;;;;;21.03;14.77;;;2.90;99.90;;;;;;6299367;28;20466;-62
2020/12/29 01:40:46;;;;;;;23.83;16.37;;;3.00;99.90;;;;;;6299070;28;20474;-64
2020/12/29 01:43:48;;;;;;;41.00;14.73;;;2.90;99.90;;;;;;6299115;28;20485;-63
2020/12/29 01:46:52;;;;;;;20.77;14.50;;;3.00;99.90;;;;;;6299469;28;20483;-62
2020/12/29 01:49:57;;;;;;;30.53;15.90;;;3.00;99.90;;;;;;6294372;28;20802;-64
2020/12/29 01:53:01;;;;;;;24.17;15.07;;;3.10;99.90;;;;;;6298986;28;20483;-62
2020/12/29 01:56:03;;;;;;;22.60;16.00;;;3.00;99.90;;;;;;6302509;28;20469;-66
2020/12/29 01:59:09;;;;;;;42.70;17.40;;;3.00;99.90;;;;;;6303501;28;20853;-65
2020/12/29 02:02:12;;;;;;;26.27;17.83;;;3.00;99.90;;;;;;6303567;28;20473;-63
2020/12/29 02:05:15;;;;;;;20.80;14.00;;;3.00;99.90;;;;;;6303391;28;20468;-64
2020/12/29 02:08:19;;;;;;;27.33;16.53;;;3.00;99.90;;;;;;6303135;28;20949;-64
2020/12/29 02:11:21;;;;;;;18.50;14.10;;;3.00;99.90;;;;;;6303034;28;20992;-64
2020/12/29 02:14:24;;;;;;;36.37;16.10;;;3.00;99.90;;;;;;6303398;28;20794;-63
2020/12/29 02:17:27;;;;;;;33.20;15.63;;;3.10;99.90;;;;;;6303177;28;20476;-66
2020/12/29 02:20:30;;;;;;;29.60;15.50;;;2.90;99.90;;;;;;6303107;28;20488;-64
2020/12/29 02:23:33;;;;;;;19.87;14.73;;;2.90;99.90;;;;;;6303192;28;20472;-64
2020/12/29 02:26:36;;;;;;;22.77;14.37;;;3.00;99.90;;;;;;6303096;28;20469;-64
2020/12/29 02:29:38;;;;;;;21.97;16.10;;;2.90;99.90;;;;;;6302947;28;20823;-63
2020/12/29 02:32:40;;;;;;;69.07;19.07;;;2.90;99.90;;;;;;6302572;28;20469;-63
2020/12/29 02:35:42;;;;;;;24.87;14.30;;;2.90;99.90;;;;;;6302838;28;20484;-64
2020/12/29 02:38:45;;;;;;;39.00;16.80;;;2.90;99.90;;;;;;6302727;28;20499;-63
2020/12/29 02:41:48;;;;;;;19.90;14.27;;;2.90;99.90;;;;;;6302166;28;20470;-64
2020/12/29 02:44:50;;;;;;;21.60;15.10;;;2.90;99.90;;;;;;6300528;28;20465;-64
2020/12/29 02:47:52;;;;;;;29.27;15.10;;;2.90;99.90;;;;;;6300158;28;20480;-65
2020/12/29 02:50:54;;;;;;;26.50;15.60;;;2.80;99.90;;;;;;6300105;28;20575;-64
2020/12/29 02:53:58;;;;;;;22.33;14.40;;;2.90;99.90;;;;;;6300163;28;20825;-65
2020/12/29 02:57:00;;;;;;;16.80;12.33;;;2.90;99.90;;;;;;6294872;28;20980;-66
2020/12/29 03:00:04;;;;;;;29.20;14.50;;;2.90;99.90;;;;;;6300003;28;20473;-65
2020/12/29 03:03:06;;;;;;;22.53;14.60;;;2.90;99.90;;;;;;6301658;28;20471;-65
2020/12/29 03:06:08;;;;;;;23.10;14.47;;;2.80;99.90;;;;;;6298424;28;20972;-65
2020/12/29 03:09:13;;;;;;;26.30;14.10;;;2.80;99.90;;;;;;6302106;28;20465;-66
2020/12/29 03:12:15;;;;;;;23.10;12.50;;;2.80;99.90;;;;;;6301985;28;20522;-66
2020/12/29 03:15:18;;;;;;;22.13;15.00;;;2.80;99.90;;;;;;6301954;28;20489;-62
2020/12/29 03:18:20;;;;;;;19.47;13.60;;;2.80;99.90;;;;;;6302270;28;20437;-65
2020/12/29 03:21:23;;;;;;;33.47;15.03;;;2.80;99.90;;;;;;6301752;28;20964;-65
2020/12/29 03:24:26;;;;;;;25.80;14.93;;;2.80;99.90;;;;;;6302095;28;20442;-66
2020/12/29 03:27:28;;;;;;;26.90;16.97;;;2.80;99.90;;;;;;6301700;28;20773;-66
2020/12/29 03:30:30;;;;;;;24.93;13.50;;;2.80;99.90;;;;;;6301894;28;20472;-66
2020/12/29 03:33:32;;;;;;;33.87;14.50;;;2.90;99.90;;;;;;6301872;28;20437;-67
2020/12/29 03:36:35;;;;;;;21.33;14.27;;;2.80;99.90;;;;;;6301416;28;20991;-66
2020/12/29 03:39:38;;;;;;;24.27;13.93;;;2.70;99.90;;;;;;6301789;28;20441;-65
2020/12/29 03:42:40;;;;;;;22.63;13.20;;;2.80;99.90;;;;;;6301972;28;20465;-66
2020/12/29 03:45:44;;;;;;;19.80;12.70;;;2.80;99.90;;;;;;6301928;28;20457;-66
2020/12/29 03:48:46;;;;;;;21.40;12.83;;;2.80;99.90;;;;;;6301199;28;20472;-65
2020/12/29 03:51:48;;;;;;;22.63;12.73;;;2.80;99.90;;;;;;6301285;28;20465;-65
2020/12/29 03:54:51;;;;;;;38.40;14.00;;;2.80;99.90;;;;;;6301049;28;20453;-66
2020/12/29 03:57:54;;;;;;;21.13;12.60;;;2.60;99.90;;;;;;6296551;28;20464;-66
2020/12/29 04:00:56;;;;;;;18.93;12.77;;;2.50;99.90;;;;;;6301165;28;20485;-66
2020/12/29 04:03:58;;;;;;;17.17;12.20;;;2.50;99.90;;;;;;6301219;28;20465;-66
2020/12/29 04:07:00;;;;;;;13.30;10.67;;;2.40;99.90;;;;;;6300902;28;20484;-66
2020/12/29 04:10:03;;;;;;;16.60;12.00;;;2.40;99.90;;;;;;6300810;28;20492;-66
2020/12/29 04:13:05;;;;;;;14.90;11.03;;;2.30;99.90;;;;;;6300643;28;20484;-66
2020/12/29 04:16:08;;;;;;;18.97;11.00;;;2.30;99.90;;;;;;6300488;28;20789;-66
2020/12/29 04:19:10;;;;;;;18.73;12.10;;;2.30;99.90;;;;;;6299913;28;20469;-65
2020/12/29 04:22:13;;;;;;;18.13;11.97;;;2.20;99.90;;;;;;6300715;28;20480;-66
2020/12/29 04:25:15;;;;;;;25.53;14.17;;;2.20;99.90;;;;;;6300604;28;20469;-65
2020/12/29 04:28:18;;;;;;;17.83;12.80;;;2.20;99.90;;;;;;6300910;28;20515;-65
2020/12/29 04:31:23;;;;;;;18.20;11.80;;;2.30;99.90;;;;;;6300025;28;20881;-65
2020/12/29 04:34:25;;;;;;;18.37;11.90;;;2.20;99.90;;;;;;6300442;28;20492;-65
2020/12/29 04:37:27;;;;;;;18.20;13.67;;;2.30;99.90;;;;;;6300054;28;20976;-65
2020/12/29 04:40:31;;;;;;;15.63;11.37;;;2.20;99.90;;;;;;6300038;28;20465;-66
2020/12/29 04:43:34;;;;;;;11.37;9.80;;;2.10;99.90;;;;;;6300329;28;20484;-65
2020/12/29 04:46:38;;;;;;;13.13;10.40;;;2.10;99.90;;;;;;6300314;28;20484;-65
2020/12/29 04:49:41;;;;;;;13.83;10.80;;;2.10;99.90;;;;;;6299628;28;20496;-66
2020/12/29 04:52:45;;;;;;;14.07;10.20;;;2.00;99.90;;;;;;6299864;28;20484;-66
2020/12/29 04:56:01;;;;;;;11.93;9.73;;;2.00;99.90;;;;;;6300234;28;20477;-66
2020/12/29 04:59:05;;;;;;;10.90;9.00;;;2.00;99.90;;;;;;6300103;28;20481;-66
2020/12/29 05:02:07;;;;;;;16.33;11.03;;;1.90;99.90;;;;;;6300097;28;20488;-65
2020/12/29 05:05:12;;;;;;;11.90;10.10;;;1.90;99.90;;;;;;6290465;28;20984;-66
2020/12/29 05:08:14;;;;;;;12.23;9.70;;;1.90;99.90;;;;;;6299848;28;20492;-66
2020/12/29 05:11:19;;;;;;;11.13;8.77;;;1.80;99.90;;;;;;6299444;28;20488;-66
2020/12/29 05:14:21;;;;;;;15.27;10.87;;;1.80;99.90;;;;;;6299442;28;20815;-66
2020/12/29 05:17:26;;;;;;;11.23;9.90;;;1.80;99.90;;;;;;6299887;28;20477;-66
2020/12/29 05:20:33;;;;;;;13.30;9.13;;;1.70;99.90;;;;;;6299569;28;20477;-65
2020/12/29 05:23:36;;;;;;;10.53;9.13;;;1.70;99.90;;;;;;6299379;28;20969;-66
2020/12/29 05:26:39;;;;;;;11.20;8.73;;;1.70;99.90;;;;;;6300099;28;20992;-66
2020/12/29 05:29:42;;;;;;;12.03;9.20;;;1.70;99.90;;;;;;6302707;28;20465;-66
2020/12/29 05:32:44;;;;;;;16.63;10.27;;;1.70;99.90;;;;;;6304990;28;20473;-66
2020/12/29 05:35:46;;;;;;;12.43;9.67;;;1.60;99.90;;;;;;6304498;28;20496;-66
2020/12/29 05:38:48;;;;;;;10.77;8.63;;;1.60;99.90;;;;;;6304466;28;20465;-66
2020/12/29 05:41:52;;;;;;;10.80;8.80;;;1.60;99.90;;;;;;6304503;28;20809;-66
2020/12/29 05:44:56;;;;;;;11.33;8.07;;;1.60;99.90;;;;;;6304078;28;20461;-66
2020/12/29 05:47:59;;;;;;;11.80;9.10;;;1.50;99.90;;;;;;6304749;28;20484;-66
2020/12/29 05:51:12;;;;;;;11.00;8.33;;;1.50;99.90;;;;;;6303947;28;20972;-65
2020/12/29 05:54:15;;;;;;;8.87;7.93;;;1.50;99.90;;;;;;6303714;28;20496;-66
2020/12/29 05:57:18;;;;;;;11.30;9.00;;;1.60;99.90;;;;;;6303661;28;20476;-66
2020/12/29 06:00:24;;;;;;;10.40;8.50;;;1.60;99.90;;;;;;6303029;28;20454;-65
2020/12/29 06:03:27;;;;;;;13.00;10.00;;;1.60;99.90;;;;;;6303534;28;20422;-65
2020/12/29 06:06:32;;;;;;;9.77;8.77;;;1.60;99.90;;;;;;6299603;28;20437;-65
2020/12/29 06:09:37;;;;;;;9.70;8.80;;;1.50;99.90;;;;;;6303756;28;20460;-65
2020/12/29 06:12:46;;;;;;;9.20;7.93;;;1.50;99.90;;;;;;6303364;28;20477;-66
2020/12/29 06:15:57;;;;;;;11.43;8.87;;;1.50;99.90;;;;;;6303237;28;20787;-66
2020/12/29 06:19:10;;;;;;;8.57;7.67;;;1.50;99.90;;;;;;6303695;28;20472;-66
2020/12/29 06:22:13;;;;;;;9.67;8.20;;;1.50;99.90;;;;;;6303438;28;20483;-66
2020/12/29 06:25:17;;;;;;;10.80;9.33;;;1.50;99.90;;;;;;6303364;28;20953;-66
2020/12/29 06:28:27;;;;;;;6.83;6.10;;;1.50;99.90;;;;;;6303237;28;20816;-66
2020/12/29 06:31:30;;;;;;;8.20;7.37;;;1.50;99.90;;;;;;6303082;28;20488;-66
2020/12/29 06:34:35;;;;;;;11.20;8.47;;;1.50;99.90;;;;;;6302758;28;20481;-66
2020/12/29 06:37:45;;;;;;;11.60;8.80;;;1.60;99.90;;;;;;6303074;28;20815;-66
2020/12/29 06:40:49;;;;;;;8.67;7.80;;;1.60;99.90;;;;;;6302277;28;20489;-66
2020/12/29 06:44:05;;;;;;;9.60;8.03;;;1.60;99.90;;;;;;6302890;28;21024;-66
2020/12/29 06:47:09;;;;;;;10.33;7.83;;;1.60;99.90;;;;;;6302978;28;20476;-66
2020/12/29 06:50:22;;;;;;;8.03;6.90;;;1.50;99.90;;;;;;6302721;28;20469;-65
2020/12/29 06:53:25;;;;;;;7.40;6.17;;;1.50;99.90;;;;;;6303092;28;20859;-66
2020/12/29 06:56:27;;;;;;;6.97;6.33;;;1.60;99.90;;;;;;6302311;28;20498;-66
2020/12/29 06:59:39;;;;;;;8.60;6.23;;;1.50;99.90;;;;;;6302678;28;20469;-66
2020/12/29 07:02:45;;;;;;;9.10;5.70;;;1.50;99.90;;;;;;6302491;28;20812;-66
2020/12/29 07:05:47;;;;;;;10.20;6.60;;;1.50;99.90;;;;;;6302561;28;20466;-66
2020/12/29 07:08:49;;;;;;;8.73;6.30;;;1.60;99.90;;;;;;6302146;28;20477;-66
2020/12/29 07:12:02;;;;;;;7.03;6.30;;;1.70;99.90;;;;;;6301749;28;20805;-66
2020/12/29 07:15:06;;;;;;;6.33;5.73;;;1.70;99.90;;;;;;6293076;28;20496;-66
2020/12/29 07:18:09;;;;;;;9.87;7.03;;;1.70;99.90;;;;;;6302363;28;20809;-66
2020/12/29 07:21:27;;;;;;;7.93;5.57;;;1.80;99.90;;;;;;6301843;28;21003;-66
2020/12/29 07:24:30;;;;;;;7.20;6.30;;;1.90;99.90;;;;;;6301983;28;20442;-65
2020/12/29 07:27:32;;;;;;;7.70;5.40;;;1.80;99.90;;;;;;6302974;28;20441;-66
2020/12/29 07:30:35;;;;;;;7.33;6.57;;;1.80;99.90;;;;;;6301563;28;20926;-66
2020/12/29 07:33:49;;;;;;;6.83;5.67;;;1.80;99.90;;;;;;6301700;28;20913;-66
2020/12/29 07:36:54;;;;;;;8.77;6.40;;;1.90;99.90;;;;;;6301732;28;20544;-66
2020/12/29 07:39:57;;;;;;;6.07;5.57;;;2.00;99.90;;;;;;6301625;28;20477;-66
2020/12/29 07:42:59;;;;;;;6.90;6.10;;;2.10;99.90;;;;;;6301229;28;20496;-66
2020/12/29 07:46:05;;;;;;;6.53;5.93;;;2.30;99.90;;;;;;6301875;28;20538;-66
2020/12/29 07:49:08;;;;;;;9.53;6.37;;;2.30;99.90;;;;;;6300951;28;20973;-66
2020/12/29 07:52:21;;;;;;;6.23;5.70;;;2.30;99.90;;;;;;6300202;28;20546;-66
2020/12/29 07:55:23;;;;;;;6.10;4.97;;;2.30;99.90;;;;;;6301158;28;20478;-67
2020/12/29 07:58:26;;;;;;;6.27;5.60;;;2.30;99.90;;;;;;6301493;28;20515;-66
2020/12/29 08:01:29;;;;;;;6.90;5.70;;;2.30;99.90;;;;;;6300884;28;20481;-66
2020/12/29 08:04:32;;;;;;;6.63;6.03;;;2.30;99.90;;;;;;6301050;28;20465;-66
2020/12/29 08:07:35;;;;;;;5.43;4.93;;;2.30;99.90;;;;;;6300853;28;20790;-67
2020/12/29 08:10:45;;;;;;;9.10;6.90;;;2.40;99.90;;;;;;6300959;28;20474;-67
2020/12/29 08:13:50;;;;;;;6.40;5.80;;;2.50;99.90;;;;;;6300866;28;20481;-66
2020/12/29 08:17:03;;;;;;;7.50;6.60;;;2.50;99.90;;;;;;6291133;28;20481;-67
2020/12/29 08:20:05;;;;;;;8.10;6.27;;;2.60;99.90;;;;;;6300734;28;20473;-66
2020/12/29 08:23:08;;;;;;;5.80;5.13;;;2.60;99.90;;;;;;6300256;28;20899;-66
2020/12/29 08:26:10;;;;;;;6.60;5.70;;;2.70;99.90;;;;;;6300714;28;20469;-66
2020/12/29 08:29:13;;;;;;;7.77;6.70;;;2.90;99.90;;;;;;6300251;28;20469;-67
2020/12/29 08:32:21;;;;;;;6.03;5.13;;;3.10;99.90;;;;;;6299907;28;20476;-66
2020/12/29 08:35:23;;;;;;;7.67;6.63;;;3.30;99.90;;;;;;6292150;28;20489;-66
2020/12/29 08:38:41;;;;;;;7.07;6.33;;;3.40;99.90;;;;;;6299621;28;20473;-66
2020/12/29 08:41:51;;;;;;;8.13;6.37;;;3.50;99.90;;;;;;6299150;28;20839;-66
2020/12/29 08:44:56;;;;;;;8.00;6.40;;;3.50;99.90;;;;;;6299822;28;20469;-66
2020/12/29 08:47:59;;;;;;;7.13;6.43;;;3.60;99.90;;;;;;6300187;28;20567;-66
2020/12/29 08:51:16;;;;;;;7.80;6.23;;;3.60;99.90;;;;;;6299946;28;20552;-66
2020/12/29 08:54:19;;;;;;;7.40;6.80;;;3.60;99.90;;;;;;6299837;28;20465;-66
2020/12/29 08:57:26;;;;;;;11.97;8.50;;;3.70;99.90;;;;;;6299610;28;20473;-66
2020/12/29 09:00:30;;;;;;;8.20;6.90;;;3.70;99.90;;;;;;6300238;28;20464;-66
2020/12/29 09:03:33;;;;;;;9.87;8.60;;;3.70;99.90;;;;;;6299558;28;20441;-66
2020/12/29 09:06:35;;;;;;;8.83;7.60;;;3.70;99.90;;;;;;6299936;28;20437;-67
2020/12/29 09:09:39;;;;;;;8.83;7.93;;;3.70;99.90;;;;;;6298327;28;20925;-67
2020/12/29 09:12:41;;;;;;;7.30;6.50;;;3.80;99.90;;;;;;6279415;28;20794;-67
2020/12/29 09:15:44;;;;;;;8.37;7.23;;;3.90;99.90;;;;;;6289769;28;20556;-67
2020/12/29 09:18:47;;;;;;;6.60;6.00;;;3.90;99.90;;;;;;6287277;28;20475;-67
2020/12/29 09:21:49;;;;;;;8.97;7.70;;;4.00;99.90;;;;;;6298313;28;20469;-67
2020/12/29 09:24:52;;;;;;;12.70;8.67;;;4.10;99.90;;;;;;6299323;28;20465;-65
2020/12/29 09:28:10;;;;;;;11.73;8.83;;;4.20;99.90;;;;;;6299440;28;20464;-65
2020/12/29 09:31:15;;;;;;;10.87;8.97;;;4.20;99.90;;;;;;6299348;28;20844;-65
2020/12/29 09:34:18;;;;;;;8.93;8.03;;;4.40;99.90;;;;;;6298922;28;20991;-65
2020/12/29 09:37:20;;;;;;;11.13;8.67;;;4.70;99.90;;;;;;6299220;28;20469;-66
2020/12/29 09:40:23;;;;;;;13.70;10.97;;;5.00;99.90;;;;;;6298868;28;20480;-68
2020/12/29 09:43:26;;;;;;;11.10;10.00;;;5.30;99.90;;;;;;6299446;28;20469;-66
2020/12/29 09:46:35;;;;;;;12.97;10.53;;;5.60;99.90;;;;;;6276003;28;20471;-65
2020/12/29 09:49:39;;;;;;;16.40;11.53;;;5.70;99.90;;;;;;6274267;28;20484;-66
2020/12/29 09:52:42;;;;;;;12.90;11.03;;;5.80;99.90;;;;;;6273755;28;20918;-67
2020/12/29 09:55:44;;;;;;;12.20;8.97;;;6.00;99.90;;;;;;6273937;28;20822;-63
2020/12/29 09:58:46;;;;;;;14.00;10.83;;;6.30;99.90;;;;;;6273902;28;20532;-62
2020/12/29 10:01:49;;;;;;;15.90;9.73;;;6.60;99.90;;;;;;6273876;28;20478;-59
2020/12/29 10:04:53;;;;;;;13.37;9.00;;;6.80;99.90;;;;;;6274026;28;20473;-59
2020/12/29 10:07:58;;;;;;;10.17;8.30;;;6.80;99.90;;;;;;6274244;28;20477;-64
2020/12/29 10:11:01;;;;;;;13.87;9.60;;;6.70;99.90;;;;;;6282065;28;20465;-65
2020/12/29 10:14:03;;;;;;;14.50;10.83;;;6.70;99.90;;;;;;6298857;28;20481;-67
2020/12/29 10:17:05;;;;;;;10.40;8.90;;;6.70;99.90;;;;;;6302253;28;20473;-66
2020/12/29 10:20:08;;;;;;;13.57;10.70;;;6.70;99.90;;;;;;6303411;28;20469;-65
2020/12/29 10:23:11;;;;;;;14.00;11.00;;;6.80;99.90;;;;;;6298142;28;20465;-64
2020/12/29 10:26:15;;;;;;;13.80;10.53;;;6.90;99.90;;;;;;6303389;28;20476;-65
2020/12/29 10:29:17;;;;;;;11.10;9.87;;;7.10;99.90;;;;;;6303189;28;20483;-65
2020/12/29 10:32:20;;;;;;;10.57;8.47;;;7.20;99.90;;;;;;6302920;28;20473;-64
2020/12/29 10:35:23;;;;;;;8.93;8.03;;;7.40;99.90;;;;;;6302728;28;20504;-65
2020/12/29 10:38:25;;;;;;;10.97;8.77;;;7.50;99.90;;;;;;6302911;28;20961;-64
2020/12/29 10:41:31;;;;;;;14.27;10.30;;;7.60;99.90;;;;;;6302782;28;20575;-67
2020/12/29 10:44:33;;;;;;;14.40;10.60;;;7.60;99.90;;;;;;6299109;28;20470;-67
2020/12/29 10:47:36;;;;;;;17.17;12.07;;;7.60;99.90;;;;;;6277970;28;20466;-65
2020/12/29 10:50:39;;;;;;;11.60;9.87;;;7.70;99.90;;;;;;6277477;28;20478;-65
2020/12/29 10:53:41;;;;;;;12.57;11.23;;;8.00;99.90;;;;;;6277815;28;20485;-65
2020/12/29 10:56:43;;;;;;;12.90;11.47;;;8.20;99.90;;;;;;6277421;28;20485;-65
2020/12/29 10:59:45;;;;;;;25.10;18.50;;;8.40;99.90;;;;;;6277428;28;20478;-64
2020/12/29 11:02:48;;;;;;;12.40;11.10;;;8.70;99.90;;;;;;6277493;28;20466;-65
2020/12/29 11:05:51;;;;;;;12.57;9.67;;;8.90;99.90;;;;;;6277220;28;20477;-64
2020/12/29 11:08:53;;;;;;;9.63;8.73;;;9.10;99.90;;;;;;6277325;28;20480;-64
2020/12/29 11:11:55;;;;;;;6.67;5.60;;;9.20;99.90;;;;;;6285334;28;20473;-65
2020/12/29 11:14:57;;;;;;;5.83;5.33;;;9.20;99.90;;;;;;6301829;28;20481;-65
2020/12/29 11:17:59;;;;;;;4.80;4.40;;;9.30;99.90;;;;;;6301693;28;20469;-64
2020/12/29 11:21:05;;;;;;;5.60;4.60;;;9.50;99.80;;;;;;6301411;28;20486;-65
2020/12/29 11:24:08;;;;;;;5.23;4.70;;;9.30;99.10;;;;;;6301338;28;20470;-65
2020/12/29 11:27:10;;;;;;;5.87;5.37;;;9.50;99.90;;;;;;6301299;28;20469;-63
2020/12/29 11:30:12;;;;;;;5.10;4.60;;;9.90;99.70;;;;;;6296709;28;20542;-65
2020/12/29 11:33:15;;;;;;;6.83;5.97;;;10.10;97.70;;;;;;6300045;28;20465;-63
2020/12/29 11:36:19;;;;;;;8.90;8.10;;;10.20;98.60;;;;;;6300219;28;20611;-64
2020/12/29 11:39:21;;;;;;;6.40;5.23;;;11.50;96.50;;;;;;6300169;28;20929;-63
2020/12/29 11:42:24;;;;;;;4.33;3.77;;;15.60;94.60;;;;;;6300096;28;20473;-65
2020/12/29 11:45:26;;;;;;;8.10;7.40;;;18.80;74.50;;;;;;6300110;28;20434;-63
2020/12/29 11:48:28;;;;;;;5.03;4.57;;;21.40;61.90;;;;;;6300121;28;20445;-65
2020/12/29 11:51:31;;;;;;;4.83;4.40;;;23.00;50.40;;;;;;6300874;28;20479;-64
2020/12/29 11:54:34;;;;;;;3.90;3.60;;;22.60;45.80;;;;;;6300973;28;20232;-64
2020/12/29 11:57:36;;;;;;;4.30;3.90;;;21.00;47.00;;;;;;6300919;28;20485;-64
2020/12/29 12:00:38;;;;;;;5.03;3.97;;;19.00;49.90;;;;;;6300657;28;20465;-64
2020/12/29 12:03:42;;;;;;;4.07;3.77;;;17.20;53.80;;;;;;6300985;28;20603;-65
2020/12/29 12:06:46;;;;;;;4.07;3.63;;;15.60;58.30;;;;;;6300943;28;20464;-64
2020/12/29 12:09:48;;;;;;;5.27;4.10;;;14.40;61.40;;;;;;6300724;28;20488;-64
2020/12/29 12:12:50;;;;;;;5.07;3.40;;;13.40;64.80;;;;;;6299647;28;20481;-64
2020/12/29 12:15:53;;;;;;;4.43;3.77;;;12.40;69.90;;;;;;6300569;28;20475;-64
2020/12/29 12:19:10;;;;;;;4.80;4.40;;;11.80;74.90;;;;;;6300087;28;20499;-64
2020/12/29 12:22:13;;;;;;;4.73;4.33;;;11.10;78.70;;;;;;6300189;28;20473;-64
2020/12/29 12:25:15;;;;;;;4.60;4.20;;;10.70;83.70;;;;;;6299910;28;20807;-64
2020/12/29 12:28:19;;;;;;;5.87;5.27;;;10.50;86.10;;;;;;6300330;28;20479;-64
2020/12/29 12:31:22;;;;;;;6.63;5.00;;;10.30;89.90;;;;;;6290214;28;20477;-64
2020/12/29 12:34:27;;;;;;;7.67;4.50;;;10.00;90.70;;;;;;6300204;28;20501;-64
2020/12/29 12:37:30;;;;;;;7.23;5.47;;;9.70;92.60;;;;;;6299952;28;20466;-65
2020/12/29 12:40:32;;;;;;;6.03;5.40;;;9.80;93.60;;;;;;6299423;28;20485;-65
2020/12/29 12:43:34;;;;;;;6.50;4.60;;;9.90;94.30;;;;;;6299903;28;20991;-64
2020/12/29 12:46:39;;;;;;;7.17;5.30;;;10.30;93.70;;;;;;6299674;28;20489;-65
2020/12/29 12:49:41;;;;;;;7.10;5.67;;;10.90;94.40;;;;;;6299680;28;20476;-65
2020/12/29 12:52:44;;;;;;;7.67;5.60;;;13.90;92.00;;;;;;6299859;28;20461;-65
2020/12/29 12:55:46;;;;;;;5.90;5.30;;;18.00;77.40;;;;;;6299609;28;20986;-65
2020/12/29 12:58:49;;;;;;;9.10;6.10;;;20.70;63.20;;;;;;6299796;28;20785;-64
2020/12/29 13:01:52;;;;;;;4.00;3.60;;;23.30;53.60;;;;;;6299668;28;20488;-64
2020/12/29 13:04:54;;;;;;;4.50;4.10;;;22.20;46.40;;;;;;6299630;28;20572;-65
2020/12/29 13:07:58;;;;;;;6.27;5.00;;;20.10;49.30;;;;;;6299769;28;20466;-64
2020/12/29 13:11:00;;;;;;;5.67;4.23;;;18.80;51.40;;;;;;6298748;28;20473;-64
2020/12/29 13:14:02;;;;;;;3.63;3.33;;;17.40;54.80;;;;;;6299641;28;20519;-64
2020/12/29 13:17:04;;;;;;;3.50;3.20;;;15.60;59.00;;;;;;6299203;28;20461;-67
2020/12/29 13:20:09;;;;;;;3.57;3.23;;;16.20;59.60;;;;;;6298911;28;21024;-64
2020/12/29 13:23:12;;;;;;;8.10;3.30;;;16.40;58.60;;;;;;6299160;28;20469;-66
2020/12/29 13:26:15;;;;;;;3.50;2.70;;;17.70;57.30;;;;;;6299752;28;20471;-65
2020/12/29 13:29:18;;;;;;;3.83;3.20;;;18.70;55.00;;;;;;6299275;28;20465;-65
2020/12/29 13:32:21;;;;;;;3.53;2.97;;;18.70;53.20;;;;;;6299627;28;20995;-67
2020/12/29 13:35:23;;;;;;;3.70;3.40;;;17.70;54.20;;;;;;6299495;28;20469;-66
2020/12/29 13:38:26;;;;;;;4.77;3.33;;;16.40;56.60;;;;;;6299136;28;20465;-62
2020/12/29 13:41:28;;;;;;;4.03;3.70;;;15.00;59.00;;;;;;6299144;28;20976;-67
2020/12/29 13:44:31;;;;;;;5.60;3.77;;;13.90;63.70;;;;;;6298826;28;20512;-66
2020/12/29 13:47:33;;;;;;;3.70;3.40;;;13.70;65.90;;;;;;6299091;28;20797;-67
2020/12/29 13:50:36;;;;;;;4.57;3.77;;;13.60;66.80;;;;;;6301879;28;20487;-64
2020/12/29 13:53:39;;;;;;;5.07;3.60;;;13.40;67.30;;;;;;6303963;28;20461;-66
2020/12/29 13:56:43;;;;;;;4.43;3.40;;;13.00;69.10;;;;;;6303713;28;21015;-66
2020/12/29 13:59:45;;;;;;;7.80;3.77;;;12.30;71.60;;;;;;6303860;28;20479;-65
2020/12/29 14:02:48;;;;;;;5.10;4.10;;;11.80;73.80;;;;;;6303828;28;20553;-68
2020/12/29 14:05:50;;;;;;;6.10;4.30;;;11.40;75.90;;;;;;6303684;28;20544;-65
2020/12/29 14:08:55;;;;;;;4.87;4.40;;;11.10;78.70;;;;;;6303618;28;20465;-66
2020/12/29 14:11:57;;;;;;;9.37;8.43;;;10.70;81.40;;;;;;6302580;28;20476;-67
2020/12/29 14:14:59;;;;;;;9.00;7.50;;;10.20;84.70;;;;;;6303238;28;20465;-67
2020/12/29 14:18:01;;;;;;;7.17;6.03;;;9.60;89.40;;;;;;6303299;28;20992;-65
2020/12/29 14:21:04;;;;;;;7.97;7.13;;;9.00;91.80;;;;;;6303339;28;20481;-65
2020/12/29 14:24:07;;;;;;;5.40;4.90;;;8.70;92.70;;;;;;6303081;28;20480;-66
2020/12/29 14:27:09;;;;;;;7.83;6.40;;;8.50;93.90;;;;;;6303525;28;20458;-64
2020/12/29 14:30:12;;;;;;;8.63;7.83;;;8.40;94.70;;;;;;6302918;28;20488;-65
2020/12/29 14:33:14;;;;;;;7.87;7.07;;;8.20;95.80;;;;;;6302753;28;20464;-63
2020/12/29 14:36:17;;;;;;;12.00;7.20;;;8.10;96.50;;;;;;6302758;28;20478;-63
2020/12/29 14:39:23;;;;;;;6.57;6.00;;;8.10;97.00;;;;;;6293062;28;20487;-63
2020/12/29 14:42:25;;;;;;;8.40;6.97;;;8.10;97.70;;;;;;6302783;28;20472;-62
2020/12/29 14:45:28;;;;;;;7.20;5.63;;;7.90;98.50;;;;;;6302577;28;20456;-62
2020/12/29 14:48:33;;;;;;;6.10;5.50;;;7.80;99.10;;;;;;6302453;28;20808;-63
2020/12/29 14:51:35;;;;;;;8.43;5.97;;;7.80;99.60;;;;;;6302767;28;20469;-63
2020/12/29 14:54:39;;;;;;;7.27;5.63;;;7.70;99.90;;;;;;6302762;28;20433;-63
2020/12/29 14:57:41;;;;;;;7.27;6.50;;;7.60;99.90;;;;;;6302465;28;20477;-63
2020/12/29 15:00:44;;;;;;;6.87;6.17;;;7.50;99.90;;;;;;6301240;28;20461;-63
2020/12/29 15:03:46;;;;;;;6.70;5.70;;;7.40;99.90;;;;;;6301923;28;20929;-64
2020/12/29 15:06:48;;;;;;;5.57;4.60;;;7.20;99.90;;;;;;6301691;28;20465;-63
2020/12/29 15:09:51;;;;;;;6.13;5.43;;;7.10;99.90;;;;;;6301342;28;20464;-62
2020/12/29 15:12:53;;;;;;;6.60;5.67;;;7.00;99.90;;;;;;6300573;28;20461;-62
2020/12/29 15:15:55;;;;;;;5.33;4.83;;;6.90;99.90;;;;;;6301373;28;20477;-62
2020/12/29 15:18:58;;;;;;;7.07;6.37;;;6.80;99.90;;;;;;6300882;28;20536;-62
2020/12/29 15:22:01;;;;;;;7.30;6.40;;;6.80;99.90;;;;;;6300939;28;20473;-62
2020/12/29 15:25:04;;;;;;;10.80;8.03;;;6.70;99.90;;;;;;6301374;28;20465;-62
2020/12/29 15:28:06;;;;;;;9.20;8.30;;;6.50;99.90;;;;;;6301581;28;20465;-63
2020/12/29 15:31:09;;;;;;;9.60;8.60;;;6.40;99.90;;;;;;6301582;28;20469;-63
2020/12/29 15:34:12;;;;;;;9.30;8.40;;;6.30;99.90;;;;;;6301310;28;20484;-62
2020/12/29 15:37:14;;;;;;;7.83;7.13;;;6.20;99.90;;;;;;6300785;28;20901;-62
2020/12/29 15:40:19;;;;;;;8.63;7.83;;;6.20;99.90;;;;;;6296310;28;20797;-62
2020/12/29 15:43:21;;;;;;;7.70;7.00;;;6.20;99.90;;;;;;6300269;28;20818;-62
2020/12/29 15:46:23;;;;;;;8.93;8.03;;;6.10;99.90;;;;;;6301221;28;20465;-67
2020/12/29 15:49:25;;;;;;;8.87;7.30;;;6.10;99.90;;;;;;6300938;28;20965;-65
2020/12/29 15:52:29;;;;;;;9.67;8.00;;;6.00;99.90;;;;;;6301192;28;20480;-67
2020/12/29 15:55:35;;;;;;;9.20;8.20;;;6.00;99.90;;;;;;6301275;28;20465;-65